createdAt,value
2022-11-29T00:01:26.026Z,97401.56
2022-11-29T00:03:53.544Z,97377.44
2022-11-29T00:06:22.742Z,97401.94
2022-11-29T00:08:50.224Z,97406.69
2022-11-29T00:11:39.093Z,97405.88
2022-11-29T00:14:07.271Z,97405.09
2022-11-29T00:16:34.028Z,97407.47
2022-11-29T00:19:00.707Z,97413.06
2022-11-29T00:21:27.346Z,97402.78
2022-11-29T00:23:53.959Z,97407.50
2022-11-29T00:26:20.881Z,97394.81
2022-11-29T00:28:47.437Z,97415.75
2022-11-29T00:31:31.842Z,97414.16
2022-11-29T00:34:00.825Z,97409.03
2022-11-29T00:36:28.171Z,97415.34
2022-11-29T00:38:54.800Z,97412.59
2022-11-29T00:41:21.487Z,97410.66
2022-11-29T00:43:48.249Z,97413.81
2022-11-29T00:46:14.954Z,97414.59
2022-11-29T00:48:41.554Z,97416.22
2022-11-29T00:51:08.827Z,97414.59
2022-11-29T00:53:35.794Z,97411.84
2022-11-29T00:56:02.526Z,97412.22
2022-11-29T00:58:29.227Z,97419.34
2022-11-29T01:00:56.706Z,97407.47
2022-11-29T01:03:23.575Z,97408.25
2022-11-29T01:05:50.531Z,97407.06
2022-11-29T01:08:17.438Z,97412.97
2022-11-29T01:10:44.168Z,97394.81
2022-11-29T01:13:11.329Z,97396.41
2022-11-29T01:15:38.451Z,97387.72
2022-11-29T01:18:05.487Z,97397.97
2022-11-29T01:20:32.130Z,97395.63
2022-11-29T01:22:58.912Z,97395.22
2022-11-29T01:25:25.595Z,97400.34
2022-11-29T01:27:52.127Z,97388.44
2022-11-29T01:30:18.725Z,97397.53
2022-11-29T01:32:45.266Z,97393.22
2022-11-29T01:35:11.837Z,97389.22
2022-11-29T01:37:38.439Z,97382.84
2022-11-29T01:40:05.798Z,97384.41
2022-11-29T01:42:32.383Z,97385.19
2022-11-29T01:45:03.823Z,97382.06
2022-11-29T01:47:30.911Z,97388.41
2022-11-29T01:49:57.648Z,97384.44
2022-11-29T01:52:27.535Z,97389.63
2022-11-29T01:54:58.332Z,97388.81
2022-11-29T01:57:25.924Z,97386.84
2022-11-29T01:59:56.918Z,97382.09
2022-11-29T02:02:35.567Z,97379.69
2022-11-29T02:05:03.551Z,97376.50
2022-11-29T02:07:30.298Z,97377.25
2022-11-29T02:09:56.897Z,97377.22
2022-11-29T02:12:52.468Z,97368.47
2022-11-29T02:15:46.309Z,97373.38
2022-11-29T02:18:19.134Z,97374.97
2022-11-29T02:20:45.589Z,97376.91
2022-11-29T02:23:23.845Z,97384.44
2022-11-29T02:26:21.216Z,97381.25
2022-11-29T02:29:07.809Z,97375.75
2022-11-29T02:31:44.432Z,97381.25
2022-11-29T02:34:10.885Z,97387.56
2022-11-29T02:37:14.230Z,97389.94
2022-11-29T02:39:54.856Z,97386.75
2022-11-29T02:42:28.136Z,97385.22
2022-11-29T02:45:13.142Z,97395.50
2022-11-29T02:48:21.193Z,97408.97
2022-11-29T02:51:12.702Z,97410.56
2022-11-29T02:53:51.391Z,97410.53
2022-11-29T02:56:29.749Z,97407.38
2022-11-29T02:59:24.677Z,97408.19
2022-11-29T03:02:02.505Z,97416.97
2022-11-29T03:04:50.860Z,97415.34
2022-11-29T03:07:49.331Z,97416.97
2022-11-29T03:10:24.646Z,97414.19
2022-11-29T03:12:53.792Z,97425.69
2022-11-29T03:15:38.581Z,97419.31
2022-11-29T03:18:20.182Z,97422.47
2022-11-29T03:20:49.688Z,97421.66
2022-11-29T03:23:24.140Z,97419.31
2022-11-29T03:26:07.525Z,97427.19
2022-11-29T03:28:43.125Z,97419.28
2022-11-29T03:31:35.064Z,97424.84
2022-11-29T03:34:31.830Z,97418.50
2022-11-29T03:37:06.231Z,97418.94
2022-11-29T03:39:52.446Z,97422.88
2022-11-29T03:42:25.186Z,97418.50
2022-11-29T03:45:07.971Z,97419.28
2022-11-29T03:47:48.898Z,97406.59
2022-11-29T03:50:21.948Z,97410.56
2022-11-29T03:52:55.910Z,97413.34
2022-11-29T03:55:31.179Z,97416.13
2022-11-29T03:58:39.201Z,97410.19
2022-11-29T04:01:18.455Z,97413.34
2022-11-29T04:04:03.075Z,97411.78
2022-11-29T04:06:51.314Z,97413.41
2022-11-29T04:09:55.243Z,97408.25
2022-11-29T04:12:22.311Z,97411.38
2022-11-29T04:15:00.761Z,97401.91
2022-11-29T04:17:38.046Z,97399.88
2022-11-29T04:20:29.120Z,97404.59
2022-11-29T04:23:19.689Z,97410.53
2022-11-29T04:25:49.537Z,97412.88
2022-11-29T04:29:06.679Z,97408.50
2022-11-29T04:31:33.335Z,97409.66
2022-11-29T04:33:59.866Z,97405.72
2022-11-29T04:36:44.942Z,97410.06
2022-11-29T04:39:37.802Z,97402.50
2022-11-29T04:42:13.248Z,97401.72
2022-11-29T04:44:57.981Z,97396.19
2022-11-29T04:47:55.410Z,97400.19
2022-11-29T04:50:34.104Z,97397.00
2022-11-29T04:53:19.561Z,97400.13
2022-11-29T04:56:21.476Z,97407.28
2022-11-29T04:59:03.016Z,97405.72
2022-11-29T05:01:58.818Z,97410.50
2022-11-29T05:04:30.003Z,97408.91
2022-11-29T05:07:02.274Z,97412.53
2022-11-29T05:09:46.779Z,97401.81
2022-11-29T05:12:29.523Z,97398.66
2022-11-29T05:15:07.857Z,97401.00
2022-11-29T05:18:01.131Z,97401.00
2022-11-29T05:20:33.689Z,97412.06
2022-11-29T05:23:02.982Z,97401.34
2022-11-29T05:25:47.971Z,97400.16
2022-11-29T05:28:23.170Z,97402.50
2022-11-29T05:31:20.099Z,97404.94
2022-11-29T05:34:11.488Z,97411.25
2022-11-29T05:36:50.892Z,97406.47
2022-11-29T05:39:23.296Z,97406.47
2022-11-29T05:42:08.906Z,97406.03
2022-11-29T05:44:51.079Z,97407.22
2022-11-29T05:47:40.261Z,97411.94
2022-11-29T05:50:26.294Z,97415.16
2022-11-29T05:52:59.059Z,97418.72
2022-11-29T05:55:53.997Z,97418.31
2022-11-29T05:58:30.605Z,97421.88
2022-11-29T06:01:07.063Z,97415.16
2022-11-29T06:03:41.849Z,97421.88
2022-11-29T06:06:19.711Z,97424.59
2022-11-29T06:08:53.586Z,97420.59
2022-11-29T06:11:26.240Z,97422.94
2022-11-29T06:14:25.665Z,97417.00
2022-11-29T06:17:48.740Z,97422.94
2022-11-29T06:20:39.316Z,97414.25
2022-11-29T06:23:14.796Z,97413.47
2022-11-29T06:26:03.531Z,97416.69
2022-11-29T06:28:48.826Z,97414.72
2022-11-29T06:31:29.837Z,97417.88
2022-11-29T06:34:10.311Z,97419.81
2022-11-29T06:36:47.765Z,97422.16
2022-11-29T06:39:14.681Z,97420.59
2022-11-29T06:41:41.200Z,97425.41
2022-11-29T06:44:08.531Z,97426.25
2022-11-29T06:46:45.538Z,97429.34
2022-11-29T06:49:27.343Z,97431.38
2022-11-29T06:52:27.709Z,97438.16
2022-11-29T06:55:39.930Z,97430.16
2022-11-29T06:58:46.477Z,97436.44
2022-11-29T07:01:28.024Z,97435.63
2022-11-29T07:04:02.584Z,97443.19
2022-11-29T07:06:30.006Z,97438.00
2022-11-29T07:09:01.214Z,97444.72
2022-11-29T07:11:28.274Z,97437.91
2022-11-29T07:13:55.054Z,97436.78
2022-11-29T07:16:29.174Z,97433.22
2022-11-29T07:19:10.682Z,97443.56
2022-11-29T07:22:24.958Z,97449.00
2022-11-29T07:25:03.641Z,97441.88
2022-11-29T07:28:02.204Z,97438.72
2022-11-29T07:30:46.665Z,97454.59
2022-11-29T07:33:42.013Z,97449.09
2022-11-29T07:36:15.200Z,97455.47
2022-11-29T07:38:57.321Z,97448.31
2022-11-29T07:41:32.180Z,97449.09
2022-11-29T07:44:05.852Z,97448.63
2022-11-29T07:46:32.439Z,97440.22
2022-11-29T07:48:58.945Z,97448.50
2022-11-29T07:51:25.741Z,97448.78
2022-11-29T07:53:52.307Z,97451.16
2022-11-29T07:56:18.966Z,97440.81
2022-11-29T07:58:45.580Z,97448.69
2022-11-29T08:01:12.738Z,97460.56
2022-11-29T08:03:41.958Z,97456.66
2022-11-29T08:06:08.874Z,97451.94
2022-11-29T08:08:39.231Z,97459.78
2022-11-29T08:11:12.067Z,97464.47
2022-11-29T08:13:38.650Z,97459.69
2022-11-29T08:16:05.506Z,97459.53
2022-11-29T08:18:32.076Z,97464.25
2022-11-29T08:20:58.689Z,97464.09
2022-11-29T08:23:25.324Z,97458.47
2022-11-29T08:25:59.259Z,97463.53
2022-11-29T08:28:25.821Z,97457.22
2022-11-29T08:31:00.330Z,97463.94
2022-11-29T08:33:26.960Z,97463.19
2022-11-29T08:35:53.528Z,97461.16
2022-11-29T08:38:20.070Z,97459.88
2022-11-29T08:40:46.581Z,97460.94
2022-11-29T08:43:13.069Z,97448.16
2022-11-29T08:45:39.649Z,97450.94
2022-11-29T08:48:06.676Z,97446.00
2022-11-29T08:50:33.166Z,97449.13
2022-11-29T08:53:17.819Z,97440.78
2022-11-29T08:55:46.620Z,97440.28
2022-11-29T08:58:15.148Z,97436.50
2022-11-29T09:00:44.237Z,97438.00
2022-11-29T09:03:29.093Z,97433.59
2022-11-29T09:05:56.004Z,97435.75
2022-11-29T09:08:22.633Z,97434.31
2022-11-29T09:10:49.582Z,97418.31
2022-11-29T09:13:17.583Z,97418.13
2022-11-29T09:15:44.171Z,97419.69
2022-11-29T09:18:11.097Z,97408.19
2022-11-29T09:20:37.675Z,97414.00
2022-11-29T09:23:04.785Z,97412.22
2022-11-29T09:25:31.329Z,97403.13
2022-11-29T09:28:01.278Z,97409.63
2022-11-29T09:30:30.609Z,97419.03
2022-11-29T09:33:02.773Z,97405.81
2022-11-29T09:35:30.007Z,97406.53
2022-11-29T09:37:56.528Z,97409.94
2022-11-29T09:40:39.159Z,97399.63
2022-11-29T09:43:37.248Z,97393.44
2022-11-29T09:46:28.338Z,97384.88
2022-11-29T09:49:31.520Z,97372.19
2022-11-29T09:52:16.430Z,97383.50
2022-11-29T09:54:55.236Z,97370.34
2022-11-29T09:57:23.983Z,97372.59
2022-11-29T09:59:57.613Z,97378.66
2022-11-29T10:02:40.240Z,97369.59
2022-11-29T10:05:15.290Z,97366.78
2022-11-29T10:07:49.446Z,97365.06
2022-11-29T10:10:26.050Z,97362.06
2022-11-29T10:13:00.341Z,97362.97
2022-11-29T10:15:30.787Z,97365.78
2022-11-29T10:18:21.282Z,97357.41
2022-11-29T10:20:51.339Z,97354.09
2022-11-29T10:23:31.521Z,97358.47
2022-11-29T10:25:59.167Z,97350.00
2022-11-29T10:28:34.440Z,97357.44
2022-11-29T10:31:19.090Z,97356.22
2022-11-29T10:33:46.741Z,97356.41
2022-11-29T10:36:39.374Z,97347.16
2022-11-29T10:39:47.256Z,97344.53
2022-11-29T10:42:37.909Z,97342.94
2022-11-29T10:45:11.169Z,97344.81
2022-11-29T10:47:37.863Z,97346.31
2022-11-29T10:50:04.651Z,97344.72
2022-11-29T10:52:31.196Z,97338.69
2022-11-29T10:54:59.574Z,97343.41
2022-11-29T10:57:26.275Z,97332.09
2022-11-29T11:00:00.709Z,97344.91
2022-11-29T11:02:27.927Z,97330.06
2022-11-29T11:04:54.648Z,97321.66
2022-11-29T11:07:29.393Z,97309.19
2022-11-29T11:09:58.044Z,97322.75
2022-11-29T11:12:28.963Z,97320.50
2022-11-29T11:15:31.832Z,97321.50
2022-11-29T11:18:04.974Z,97321.03
2022-11-29T11:20:38.095Z,97316.88
2022-11-29T11:23:08.280Z,97324.25
2022-11-29T11:25:39.022Z,97330.53
2022-11-29T11:28:36.675Z,97324.41
2022-11-29T11:31:08.354Z,97322.84
2022-11-29T11:33:41.005Z,97305.81
2022-11-29T11:36:19.584Z,97313.97
2022-11-29T11:38:51.089Z,97318.50
2022-11-29T11:41:23.691Z,97311.44
2022-11-29T11:43:58.454Z,97321.28
2022-11-29T11:46:50.546Z,97311.94
2022-11-29T11:49:36.565Z,97311.59
2022-11-29T11:52:06.727Z,97310.47
2022-11-29T11:54:33.467Z,97307.38
2022-11-29T11:57:00.313Z,97296.84
2022-11-29T11:59:28.034Z,97290.13
2022-11-29T12:01:54.742Z,97289.81
2022-11-29T12:04:35.602Z,97291.25
2022-11-29T12:07:17.883Z,97283.63
2022-11-29T12:09:56.222Z,97289.91
2022-11-29T12:12:41.081Z,97293.72
2022-11-29T12:15:19.260Z,97284.78
2022-11-29T12:18:10.190Z,97281.31
2022-11-29T12:21:05.338Z,97282.66
2022-11-29T12:23:58.207Z,97278.63
2022-11-29T12:29:29.829Z,97273.03
2022-11-29T12:32:10.491Z,97269.09
2022-11-29T12:34:43.806Z,97273.13
2022-11-29T12:37:32.600Z,97274.81
2022-11-29T12:40:44.424Z,97268.50
2022-11-29T12:43:53.308Z,97271.56
2022-11-29T12:46:29.410Z,97273.69
2022-11-29T12:49:17.276Z,97278.03
2022-11-29T12:51:55.678Z,97279.97
2022-11-29T12:54:35.277Z,97288.38
2022-11-29T12:57:14.367Z,97271.97
2022-11-29T12:59:43.789Z,97273.31
2022-11-29T13:02:40.238Z,97282.94
2022-11-29T13:05:24.968Z,97282.22
2022-11-29T13:08:22.206Z,97295.09
2022-11-29T13:11:15.118Z,97295.28
2022-11-29T13:13:41.676Z,97291.56
2022-11-29T13:16:38.873Z,97299.06
2022-11-29T13:19:18.579Z,97293.59
2022-11-29T13:21:51.054Z,97303.25
2022-11-29T13:24:28.939Z,97290.59
2022-11-29T13:26:56.483Z,97290.47
2022-11-29T13:29:23.983Z,97296.53
2022-11-29T13:31:51.698Z,97289.22
2022-11-29T13:34:31.002Z,97291.47
2022-11-29T13:37:12.900Z,97278.13
2022-11-29T13:39:48.523Z,97292.91
2022-11-29T13:42:38.979Z,97289.91
2022-11-29T13:45:27.877Z,97288.88
2022-11-29T13:47:58.477Z,97291.88
2022-11-29T13:50:39.730Z,97288.69
2022-11-29T13:53:14.287Z,97296.09
2022-11-29T13:55:46.947Z,97289.38
2022-11-29T13:58:17.829Z,97292.06
2022-11-29T14:00:44.824Z,97293.13
2022-11-29T14:03:29.406Z,97301.56
2022-11-29T14:06:01.979Z,97307.78
2022-11-29T14:08:55.169Z,97310.47
2022-11-29T14:11:26.551Z,97313.63
2022-11-29T14:14:31.582Z,97302.25
2022-11-29T14:17:02.012Z,97303.13
2022-11-29T14:19:34.410Z,97306.38
2022-11-29T14:22:07.097Z,97303.69
2022-11-29T14:24:36.610Z,97293.69
2022-11-29T14:27:05.836Z,97292.16
2022-11-29T14:29:47.788Z,97294.50
2022-11-29T14:32:44.543Z,97295.63
2022-11-29T14:35:20.165Z,97288.09
2022-11-29T14:38:12.985Z,97295.09
2022-11-29T14:40:42.198Z,97296.66
2022-11-29T14:43:38.571Z,97283.81
2022-11-29T14:46:10.030Z,97283.13
2022-11-29T14:48:38.346Z,97276.94
2022-11-29T14:51:19.553Z,97293.34
2022-11-29T14:53:48.962Z,97289.44
2022-11-29T14:56:39.412Z,97293.16
2022-11-29T14:59:51.695Z,97299.44
2022-11-29T15:02:35.222Z,97304.34
2022-11-29T15:05:22.192Z,97302.78
2022-11-29T15:08:06.639Z,97300.22
2022-11-29T15:10:39.037Z,97298.75
2022-11-29T15:13:10.843Z,97299.81
2022-11-29T15:16:05.787Z,97296.94
2022-11-29T15:19:06.035Z,97296.16
2022-11-29T15:21:57.455Z,97302.22
2022-11-29T15:24:28.320Z,97302.69
2022-11-29T15:26:57.281Z,97300.34
2022-11-29T15:29:25.056Z,97308.38
2022-11-29T15:32:00.548Z,97293.16
2022-11-29T15:34:30.603Z,97308.19
2022-11-29T15:36:57.588Z,97302.22
2022-11-29T15:39:35.598Z,97308.63
2022-11-29T15:42:03.490Z,97311.50
2022-11-29T15:44:32.713Z,97309.94
2022-11-29T15:47:25.132Z,97306.09
2022-11-29T15:49:53.678Z,97309.78
2022-11-29T15:52:31.753Z,97308.63
2022-11-29T15:55:05.400Z,97303.13
2022-11-29T15:57:38.809Z,97314.81
2022-11-29T16:00:08.899Z,97315.44
2022-11-29T16:02:40.062Z,97312.31
2022-11-29T16:05:14.314Z,97315.44
2022-11-29T16:07:41.923Z,97321.78
2022-11-29T16:10:15.982Z,97324.56
2022-11-29T16:12:55.783Z,97314.59
2022-11-29T16:15:37.215Z,97323.31
2022-11-29T16:18:05.520Z,97323.38
2022-11-29T16:20:32.218Z,97327.25
2022-11-29T16:23:08.115Z,97317.66
2022-11-29T16:25:48.190Z,97324.69
2022-11-29T16:28:14.988Z,97308.72
2022-11-29T16:30:44.668Z,97322.34
2022-11-29T16:33:21.448Z,97331.09
2022-11-29T16:35:48.949Z,97328.84
2022-11-29T16:38:22.539Z,97325.69
2022-11-29T16:41:20.151Z,97326.47
2022-11-29T16:43:53.788Z,97325.16
2022-11-29T16:46:20.404Z,97329.53
2022-11-29T16:48:48.898Z,97321.03
2022-11-29T16:51:23.950Z,97319.38
2022-11-29T16:53:51.900Z,97325.59
2022-11-29T16:56:24.365Z,97314.50
2022-11-29T16:59:20.845Z,97317.66
2022-11-29T17:01:49.358Z,97304.34
2022-11-29T17:04:23.835Z,97322.16
2022-11-29T17:06:52.906Z,97314.13
2022-11-29T17:09:31.556Z,97320.97
2022-11-29T17:12:02.008Z,97318.50
2022-11-29T17:14:29.381Z,97311.59
2022-11-29T17:16:55.963Z,97312.47
2022-11-29T17:19:23.832Z,97321.47
2022-11-29T17:21:52.055Z,97313.44
2022-11-29T17:24:22.549Z,97311.88
2022-11-29T17:26:49.682Z,97303.84
2022-11-29T17:29:17.983Z,97308.53
2022-11-29T17:31:46.092Z,97303.84
2022-11-29T17:34:13.053Z,97318.84
2022-11-29T17:36:40.478Z,97305.28
2022-11-29T17:39:07.319Z,97316.41
2022-11-29T17:41:34.311Z,97310.03
2022-11-29T17:44:00.991Z,97317.56
2022-11-29T17:46:35.205Z,97316.31
2022-11-29T17:49:04.298Z,97302.00
2022-11-29T17:54:18.286Z,97306.63
2022-11-29T17:56:44.889Z,97307.16
2022-11-29T17:59:11.493Z,97302.78
2022-11-29T18:01:38.051Z,97321.63
2022-11-29T18:04:06.349Z,97323.66
2022-11-29T18:06:38.292Z,97327.91
2022-11-29T18:09:06.594Z,97338.13
2022-11-29T18:11:44.925Z,97339.09
2022-11-29T18:14:16.323Z,97339.44
2022-11-29T18:16:45.403Z,97334.94
2022-11-29T18:19:19.198Z,97338.06
2022-11-29T18:21:45.955Z,97332.66
2022-11-29T18:24:12.655Z,97334.41
2022-11-29T18:26:39.699Z,97341.81
2022-11-29T18:29:07.416Z,97325.47
2022-11-29T18:31:39.820Z,97320.44
2022-11-29T18:34:09.421Z,97324.78
2022-11-29T18:36:39.109Z,97324.00
2022-11-29T18:39:09.023Z,97315.53
2022-11-29T18:41:36.589Z,97314.28
2022-11-29T18:44:05.963Z,97307.16
2022-11-29T18:46:33.419Z,97309.16
2022-11-29T18:49:03.254Z,97316.03
2022-11-29T18:51:31.189Z,97315.19
2022-11-29T18:53:58.929Z,97308.47
2022-11-29T18:56:28.207Z,97312.41
2022-11-29T18:59:00.059Z,97316.03
2022-11-29T19:01:29.164Z,97324.09
2022-11-29T19:03:58.247Z,97331.59
2022-11-29T19:06:27.962Z,97339.97
2022-11-29T19:08:54.950Z,97335.94
2022-11-29T19:11:23.653Z,97326.88
2022-11-29T19:13:59.933Z,97320.94
2022-11-29T19:16:29.063Z,97325.13
2022-11-29T19:18:57.219Z,97319.19
2022-11-29T19:21:25.389Z,97315.34
2022-11-29T19:23:56.689Z,97314.66
2022-11-29T19:26:26.084Z,97314.41
2022-11-29T19:28:53.496Z,97313.25
2022-11-29T19:31:20.614Z,97318.16
2022-11-29T19:33:47.509Z,97320.75
2022-11-29T19:36:16.367Z,97327.03
2022-11-29T19:38:48.787Z,97314.47
2022-11-29T19:41:39.808Z,97320.75
2022-11-29T19:44:07.867Z,97319.88
2022-11-29T19:46:37.848Z,97319.78
2022-11-29T19:49:06.185Z,97312.56
2022-11-29T19:51:33.059Z,97314.81
2022-11-29T19:54:01.926Z,97309.22
2022-11-29T19:56:29.591Z,97318.84
2022-11-29T19:58:56.627Z,97322.84
2022-11-29T20:01:27.987Z,97322.16
2022-11-29T20:03:58.449Z,97306.78
2022-11-29T20:06:29.693Z,97323.72
2022-11-29T20:08:57.292Z,97322.84
2022-11-29T20:11:25.188Z,97330.81
2022-11-29T20:13:57.875Z,97323.03
2022-11-29T20:16:25.437Z,97314.22
2022-11-29T20:18:52.994Z,97322.34
2022-11-29T20:21:22.681Z,97325.47
2022-11-29T20:23:49.331Z,97326.88
2022-11-29T20:26:20.813Z,97327.81
2022-11-29T20:28:47.916Z,97320.75
2022-11-29T20:31:21.483Z,97334.91
2022-11-29T20:33:49.191Z,97326.97
2022-11-29T20:36:34.566Z,97317.34
2022-11-29T20:39:06.995Z,97319.09
2022-11-29T20:41:45.756Z,97312.91
2022-11-29T20:44:19.825Z,97312.56
2022-11-29T20:46:46.590Z,97304.19
2022-11-29T20:49:15.174Z,97301.72
2022-11-29T20:51:58.579Z,97312.38
2022-11-29T20:54:25.165Z,97307.66
2022-11-29T20:56:51.732Z,97309.94
2022-11-29T20:59:18.334Z,97303.47
2022-11-29T21:01:45.056Z,97303.81
2022-11-29T21:04:11.629Z,97303.75
2022-11-29T21:06:39.053Z,97306.81
2022-11-29T21:09:06.107Z,97299.63
2022-11-29T21:11:32.646Z,97304.03
2022-11-29T21:14:03.515Z,97292.13
2022-11-29T21:16:31.748Z,97296.66
2022-11-29T21:19:01.590Z,97298.59
2022-11-29T21:21:44.727Z,97299.81
2022-11-29T21:24:38.804Z,97306.97
2022-11-29T21:27:05.533Z,97300.50
2022-11-29T21:29:32.226Z,97306.19
2022-11-29T21:32:00.775Z,97302.19
2022-11-29T21:34:27.408Z,97307.66
2022-11-29T21:36:59.354Z,97309.84
2022-11-29T21:39:35.125Z,97311.16
2022-11-29T21:42:02.092Z,97306.78
2022-11-29T21:44:28.672Z,97314.78
2022-11-29T21:46:55.451Z,97308.69
2022-11-29T21:49:22.066Z,97300.31
2022-11-29T21:51:48.625Z,97306.59
2022-11-29T21:54:15.129Z,97304.19
2022-11-29T21:56:41.796Z,97305.22
2022-11-29T21:59:08.342Z,97312.72
2022-11-29T22:01:34.920Z,97304.69
2022-11-29T22:04:01.572Z,97307.41
2022-11-29T22:06:29.486Z,97308.88
2022-11-29T22:08:56.932Z,97302.44
2022-11-29T22:11:35.441Z,97308.38
2022-11-29T22:14:14.736Z,97302.25
2022-11-29T22:16:58.989Z,97301.53
2022-11-29T22:19:33.132Z,97297.16
2022-11-29T22:22:01.735Z,97297.50
2022-11-29T22:24:31.315Z,97294.81
2022-11-29T22:26:58.114Z,97294.97
2022-11-29T22:29:25.044Z,97281.09
2022-11-29T22:31:53.511Z,97279.88
2022-11-29T22:34:21.225Z,97269.78
2022-11-29T22:36:48.019Z,97275.25
2022-11-29T22:39:15.016Z,97266.44
2022-11-29T22:41:41.719Z,97271.69
2022-11-29T22:44:08.246Z,97275.72
2022-11-29T22:46:37.630Z,97278.91
2022-11-29T22:49:04.338Z,97268.13
2022-11-29T22:51:33.842Z,97274.47
2022-11-29T22:54:03.305Z,97270.81
2022-11-29T22:56:32.644Z,97267.69
2022-11-29T22:58:59.165Z,97261.91
2022-11-29T23:01:28.122Z,97262.69
2022-11-29T23:03:59.357Z,97263.16
2022-11-29T23:06:28.563Z,97266.78
2022-11-29T23:08:57.834Z,97266.09
2022-11-29T23:11:29.348Z,97265.25
2022-11-29T23:13:56.042Z,97252.84
2022-11-29T23:16:25.461Z,97251.97
2022-11-29T23:18:52.426Z,97258.16
2022-11-29T23:21:24.710Z,97261.75
2022-11-29T23:23:56.265Z,97256.50
2022-11-29T23:26:37.466Z,97250.94
2022-11-29T23:29:05.302Z,97247.59
2022-11-29T23:31:32.065Z,97250.94
2022-11-29T23:33:58.652Z,97260.34
2022-11-29T23:36:25.469Z,97246.75
2022-11-29T23:38:53.181Z,97240.47
2022-11-29T23:41:19.783Z,97256.31
2022-11-29T23:43:46.458Z,97256.50
2022-11-29T23:46:16.965Z,97258.94
2022-11-29T23:48:43.932Z,97255.72
2022-11-29T23:51:13.387Z,97249.00
2022-11-29T23:53:40.758Z,97254.94
2022-11-29T23:56:09.810Z,97253.88
2022-11-29T23:58:36.421Z,97258.31
